Columbus, Ohio
Traffic Map
Current Weather Conditions
Columbus, Ohio
Broken Clouds
Broken Clouds
82°
Feels Like: 83°
Wind Chill: 82° Ceiling: 25000
Heat Index: 83° Visibility: 10mi
Dew Point: 63° Wind: 6mph
Humidity: 52% Direction: 190° (S)
Pressure: 30.04in Gusts: 0mph
Raw Report DataKCMH 212051Z 19005KT 10SM BKN250 28/17 A3004 RMK AO2 SLP166 T02780172 56026
Traffic Incident Summary
Active as of:
Severity:
Category:
InformationThere was an issue retrieving the traffic information for this location. Please try a different location or try again shortly.
Advertisements